Terminal Aerodrome Forecast
Issued by NWS Lake Charles, LA

Home | Current Version | Previous Version | Text Only | Print | Product List | Glossary On
Versions: 1 2 3 4 5 6 7 8 9 10 11 12 13
000
FTUS44 KLCH 191122
TAFAEX
TAF
KAEX 191122Z 1912/2012 VRB05KT P6SM OVC080
     FM191800 16006KT P6SM OVC060
     FM200000 VRB04KT P6SM OVC050=

USA.gov is the U.S. government's official web portal to all federal, state and local government web resources and services.